sensor_id;sensor_type;location;lat;lon;timestamp;P1;durP1;ratioP1;P2;durP2;ratioP2
48777;SDS011;34578;0.000;0.000;2024-01-11T00:03:57;16.00;;;8.30;;
48777;SDS011;34578;0.000;0.000;2024-01-11T00:08:57;14.47;;;8.17;;
48777;SDS011;34578;0.000;0.000;2024-01-11T00:13:57;11.93;;;9.07;;
48777;SDS011;34578;0.000;0.000;2024-01-11T00:18:58;10.67;;;8.17;;
48777;SDS011;34578;0.000;0.000;2024-01-11T00:23:59;10.70;;;8.63;;
48777;SDS011;34578;0.000;0.000;2024-01-11T00:28:59;8.97;;;7.60;;
48777;SDS011;34578;0.000;0.000;2024-01-11T00:33:59;8.73;;;7.53;;
48777;SDS011;34578;0.000;0.000;2024-01-11T00:39:00;10.63;;;8.27;;
48777;SDS011;34578;0.000;0.000;2024-01-11T00:44:00;10.33;;;8.37;;
48777;SDS011;34578;0.000;0.000;2024-01-11T00:49:00;11.10;;;7.70;;
48777;SDS011;34578;0.000;0.000;2024-01-11T00:54:03;8.38;;;7.50;;
48777;SDS011;34578;0.000;0.000;2024-01-11T00:59:03;8.88;;;7.55;;
48777;SDS011;34578;0.000;0.000;2024-01-11T01:04:04;11.70;;;8.18;;
48777;SDS011;34578;0.000;0.000;2024-01-11T01:09:04;11.50;;;7.63;;
48777;SDS011;34578;0.000;0.000;2024-01-11T01:14:05;12.50;;;8.00;;
48777;SDS011;34578;0.000;0.000;2024-01-11T01:19:05;11.07;;;8.45;;
48777;SDS011;34578;0.000;0.000;2024-01-11T01:24:05;10.27;;;8.07;;
48777;SDS011;34578;0.000;0.000;2024-01-11T01:29:06;11.30;;;8.30;;
48777;SDS011;34578;0.000;0.000;2024-01-11T01:34:06;8.73;;;7.73;;
48777;SDS011;34578;0.000;0.000;2024-01-11T01:39:07;10.20;;;8.13;;
48777;SDS011;34578;0.000;0.000;2024-01-11T01:44:07;10.77;;;9.35;;
48777;SDS011;34578;0.000;0.000;2024-01-11T01:49:08;8.93;;;7.87;;
48777;SDS011;34578;0.000;0.000;2024-01-11T01:54:11;7.97;;;7.05;;
48777;SDS011;34578;0.000;0.000;2024-01-11T01:59:11;8.70;;;7.03;;
48777;SDS011;34578;0.000;0.000;2024-01-11T02:04:13;9.27;;;7.47;;
48777;SDS011;34578;0.000;0.000;2024-01-11T02:09:15;9.40;;;7.15;;
48777;SDS011;34578;0.000;0.000;2024-01-11T02:14:18;9.40;;;7.45;;
48777;SDS011;34578;0.000;0.000;2024-01-11T02:19:19;11.93;;;8.35;;
48777;SDS011;34578;0.000;0.000;2024-01-11T02:24:19;11.85;;;8.20;;
48777;SDS011;34578;0.000;0.000;2024-01-11T02:29:20;8.55;;;7.60;;
48777;SDS011;34578;0.000;0.000;2024-01-11T02:34:22;10.33;;;7.90;;
48777;SDS011;34578;0.000;0.000;2024-01-11T02:39:23;8.57;;;7.63;;
48777;SDS011;34578;0.000;0.000;2024-01-11T02:44:25;9.75;;;7.05;;
48777;SDS011;34578;0.000;0.000;2024-01-11T02:49:25;9.68;;;7.45;;
48777;SDS011;34578;0.000;0.000;2024-01-11T02:54:28;8.65;;;6.72;;
48777;SDS011;34578;0.000;0.000;2024-01-11T02:59:28;8.77;;;6.50;;
48777;SDS011;34578;0.000;0.000;2024-01-11T03:04:29;8.43;;;6.73;;
48777;SDS011;34578;0.000;0.000;2024-01-11T03:09:29;9.20;;;7.50;;
48777;SDS011;34578;0.000;0.000;2024-01-11T03:14:29;8.10;;;6.30;;
48777;SDS011;34578;0.000;0.000;2024-01-11T03:19:30;8.70;;;6.77;;
48777;SDS011;34578;0.000;0.000;2024-01-11T03:24:30;8.13;;;6.60;;
48777;SDS011;34578;0.000;0.000;2024-01-11T03:29:30;9.30;;;6.67;;
48777;SDS011;34578;0.000;0.000;2024-01-11T03:34:31;8.48;;;7.10;;
48777;SDS011;34578;0.000;0.000;2024-01-11T03:39:32;10.57;;;7.60;;
48777;SDS011;34578;0.000;0.000;2024-01-11T03:44:32;10.35;;;8.13;;
48777;SDS011;34578;0.000;0.000;2024-01-11T03:49:32;9.13;;;7.60;;
48777;SDS011;34578;0.000;0.000;2024-01-11T03:54:33;9.73;;;7.87;;
48777;SDS011;34578;0.000;0.000;2024-01-11T03:59:33;6.82;;;6.13;;
48777;SDS011;34578;0.000;0.000;2024-01-11T04:04:35;9.02;;;7.10;;
48777;SDS011;34578;0.000;0.000;2024-01-11T04:09:37;7.70;;;6.70;;
48777;SDS011;34578;0.000;0.000;2024-01-11T04:14:40;8.75;;;7.65;;
48777;SDS011;34578;0.000;0.000;2024-01-11T04:19:40;7.55;;;6.70;;
48777;SDS011;34578;0.000;0.000;2024-01-11T04:24:41;9.57;;;7.03;;
48777;SDS011;34578;0.000;0.000;2024-01-11T04:29:42;8.07;;;6.78;;
48777;SDS011;34578;0.000;0.000;2024-01-11T04:34:43;8.27;;;7.23;;
48777;SDS011;34578;0.000;0.000;2024-01-11T04:39:43;8.17;;;6.87;;
48777;SDS011;34578;0.000;0.000;2024-01-11T04:44:43;9.70;;;7.40;;
48777;SDS011;34578;0.000;0.000;2024-01-11T04:49:44;9.97;;;8.43;;
48777;SDS011;34578;0.000;0.000;2024-01-11T04:54:44;8.73;;;7.53;;
48777;SDS011;34578;0.000;0.000;2024-01-11T04:59:44;9.23;;;7.23;;
48777;SDS011;34578;0.000;0.000;2024-01-11T05:04:45;11.80;;;8.57;;
48777;SDS011;34578;0.000;0.000;2024-01-11T05:09:45;10.00;;;7.97;;
48777;SDS011;34578;0.000;0.000;2024-01-11T05:14:45;9.67;;;8.00;;
48777;SDS011;34578;0.000;0.000;2024-01-11T05:19:46;10.97;;;8.93;;
48777;SDS011;34578;0.000;0.000;2024-01-11T05:24:46;10.07;;;8.40;;
48777;SDS011;34578;0.000;0.000;2024-01-11T05:29:46;11.37;;;8.50;;
48777;SDS011;34578;0.000;0.000;2024-01-11T05:34:47;13.07;;;9.13;;
48777;SDS011;34578;0.000;0.000;2024-01-11T05:39:47;12.47;;;8.13;;
48777;SDS011;34578;0.000;0.000;2024-01-11T05:44:47;12.40;;;9.20;;
48777;SDS011;34578;0.000;0.000;2024-01-11T05:49:48;13.40;;;8.23;;
48777;SDS011;34578;0.000;0.000;2024-01-11T05:54:48;10.93;;;8.57;;
48777;SDS011;34578;0.000;0.000;2024-01-11T05:59:49;14.05;;;9.60;;
48777;SDS011;34578;0.000;0.000;2024-01-11T06:04:49;10.30;;;8.70;;
48777;SDS011;34578;0.000;0.000;2024-01-11T06:09:49;11.70;;;9.40;;
48777;SDS011;34578;0.000;0.000;2024-01-11T06:14:50;9.97;;;8.33;;
48777;SDS011;34578;0.000;0.000;2024-01-11T06:19:50;12.23;;;9.23;;
48777;SDS011;34578;0.000;0.000;2024-01-11T06:24:50;12.77;;;10.03;;
48777;SDS011;34578;0.000;0.000;2024-01-11T06:29:51;16.58;;;11.98;;
48777;SDS011;34578;0.000;0.000;2024-01-11T06:34:51;15.67;;;12.37;;
48777;SDS011;34578;0.000;0.000;2024-01-11T06:39:51;13.40;;;10.13;;
48777;SDS011;34578;0.000;0.000;2024-01-11T06:44:52;15.85;;;11.02;;
48777;SDS011;34578;0.000;0.000;2024-01-11T06:49:53;16.97;;;10.17;;
48777;SDS011;34578;0.000;0.000;2024-01-11T06:54:53;13.68;;;10.70;;
48777;SDS011;34578;0.000;0.000;2024-01-11T06:59:53;13.03;;;9.50;;
48777;SDS011;34578;0.000;0.000;2024-01-11T07:04:56;13.30;;;9.77;;
48777;SDS011;34578;0.000;0.000;2024-01-11T07:09:57;12.10;;;9.77;;
48777;SDS011;34578;0.000;0.000;2024-01-11T07:14:57;13.53;;;9.83;;
48777;SDS011;34578;0.000;0.000;2024-01-11T07:20:00;13.50;;;10.93;;
48777;SDS011;34578;0.000;0.000;2024-01-11T07:25:00;15.82;;;9.57;;
48777;SDS011;34578;0.000;0.000;2024-01-11T07:30:01;13.10;;;10.30;;
48777;SDS011;34578;0.000;0.000;2024-01-11T07:35:02;13.68;;;9.50;;
48777;SDS011;34578;0.000;0.000;2024-01-11T07:40:03;10.43;;;8.70;;
48777;SDS011;34578;0.000;0.000;2024-01-11T07:45:05;14.90;;;9.75;;
48777;SDS011;34578;0.000;0.000;2024-01-11T07:50:12;12.85;;;7.95;;
48777;SDS011;34578;0.000;0.000;2024-01-11T07:55:13;12.43;;;9.52;;
48777;SDS011;34578;0.000;0.000;2024-01-11T08:00:13;14.63;;;10.33;;
48777;SDS011;34578;0.000;0.000;2024-01-11T08:05:13;13.68;;;9.02;;
48777;SDS011;34578;0.000;0.000;2024-01-11T08:10:14;13.30;;;8.27;;
48777;SDS011;34578;0.000;0.000;2024-01-11T08:15:14;13.77;;;7.77;;
48777;SDS011;34578;0.000;0.000;2024-01-11T08:20:15;12.80;;;9.37;;
48777;SDS011;34578;0.000;0.000;2024-01-11T08:25:15;11.73;;;8.97;;
48777;SDS011;34578;0.000;0.000;2024-01-11T08:30:15;17.42;;;9.48;;
48777;SDS011;34578;0.000;0.000;2024-01-11T08:35:16;13.73;;;9.38;;
48777;SDS011;34578;0.000;0.000;2024-01-11T08:40:16;10.98;;;9.60;;
48777;SDS011;34578;0.000;0.000;2024-01-11T08:45:17;13.67;;;10.07;;
48777;SDS011;34578;0.000;0.000;2024-01-11T08:50:22;13.02;;;9.00;;
48777;SDS011;34578;0.000;0.000;2024-01-11T08:55:22;11.95;;;9.35;;
48777;SDS011;34578;0.000;0.000;2024-01-11T09:00:23;11.20;;;9.23;;
48777;SDS011;34578;0.000;0.000;2024-01-11T09:05:23;12.97;;;9.90;;
48777;SDS011;34578;0.000;0.000;2024-01-11T09:10:23;11.43;;;9.70;;
48777;SDS011;34578;0.000;0.000;2024-01-11T09:15:24;12.80;;;8.68;;
48777;SDS011;34578;0.000;0.000;2024-01-11T09:20:24;14.00;;;10.10;;
48777;SDS011;34578;0.000;0.000;2024-01-11T09:25:25;13.67;;;10.23;;
48777;SDS011;34578;0.000;0.000;2024-01-11T09:30:25;10.77;;;9.33;;
48777;SDS011;34578;0.000;0.000;2024-01-11T09:35:25;12.30;;;9.97;;
48777;SDS011;34578;0.000;0.000;2024-01-11T09:40:26;12.93;;;9.90;;
48777;SDS011;34578;0.000;0.000;2024-01-11T09:45:26;13.30;;;9.63;;
48777;SDS011;34578;0.000;0.000;2024-01-11T09:50:26;12.93;;;10.43;;
48777;SDS011;34578;0.000;0.000;2024-01-11T09:55:28;13.50;;;10.35;;
48777;SDS011;34578;0.000;0.000;2024-01-11T10:00:29;15.68;;;11.45;;
48777;SDS011;34578;0.000;0.000;2024-01-11T10:05:29;13.88;;;10.55;;
48777;SDS011;34578;0.000;0.000;2024-01-11T10:10:30;12.55;;;10.93;;
48777;SDS011;34578;0.000;0.000;2024-01-11T10:15:31;12.13;;;10.13;;
48777;SDS011;34578;0.000;0.000;2024-01-11T10:20:32;14.00;;;11.15;;
48777;SDS011;34578;0.000;0.000;2024-01-11T10:25:32;14.43;;;10.37;;
48777;SDS011;34578;0.000;0.000;2024-01-11T10:30:33;13.43;;;10.80;;
48777;SDS011;34578;0.000;0.000;2024-01-11T10:35:34;13.93;;;11.38;;
48777;SDS011;34578;0.000;0.000;2024-01-11T10:40:35;13.95;;;10.98;;
48777;SDS011;34578;0.000;0.000;2024-01-11T10:45:36;11.10;;;9.90;;
48777;SDS011;34578;0.000;0.000;2024-01-11T10:50:41;14.18;;;10.88;;
48777;SDS011;34578;0.000;0.000;2024-01-11T10:55:43;12.93;;;11.13;;
48777;SDS011;34578;0.000;0.000;2024-01-11T11:00:44;12.18;;;10.85;;
48777;SDS011;34578;0.000;0.000;2024-01-11T11:05:45;19.10;;;13.90;;
48777;SDS011;34578;0.000;0.000;2024-01-11T11:10:56;16.23;;;12.95;;
48777;SDS011;34578;0.000;0.000;2024-01-11T11:15:57;15.48;;;12.25;;
48777;SDS011;34578;0.000;0.000;2024-01-11T11:20:58;11.27;;;9.60;;
48777;SDS011;34578;0.000;0.000;2024-01-11T11:25:59;19.33;;;11.20;;
48777;SDS011;34578;0.000;0.000;2024-01-11T11:30:59;20.37;;;11.87;;
48777;SDS011;34578;0.000;0.000;2024-01-11T11:36:00;20.08;;;13.20;;
48777;SDS011;34578;0.000;0.000;2024-01-11T11:41:03;13.70;;;10.55;;
48777;SDS011;34578;0.000;0.000;2024-01-11T11:46:03;14.50;;;10.98;;
48777;SDS011;34578;0.000;0.000;2024-01-11T11:51:08;19.98;;;10.57;;
48777;SDS011;34578;0.000;0.000;2024-01-11T11:56:10;17.15;;;11.88;;
48777;SDS011;34578;0.000;0.000;2024-01-11T12:01:11;16.92;;;10.15;;
48777;SDS011;34578;0.000;0.000;2024-01-11T12:06:11;12.80;;;10.68;;
48777;SDS011;34578;0.000;0.000;2024-01-11T12:11:13;16.70;;;10.88;;
48777;SDS011;34578;0.000;0.000;2024-01-11T12:16:20;14.20;;;11.00;;
48777;SDS011;34578;0.000;0.000;2024-01-11T12:21:20;15.40;;;11.37;;
48777;SDS011;34578;0.000;0.000;2024-01-11T12:26:21;13.95;;;9.60;;
48777;SDS011;34578;0.000;0.000;2024-01-11T12:31:22;16.27;;;11.52;;
48777;SDS011;34578;0.000;0.000;2024-01-11T12:36:22;24.37;;;19.07;;
48777;SDS011;34578;0.000;0.000;2024-01-11T12:41:23;20.92;;;17.30;;
48777;SDS011;34578;0.000;0.000;2024-01-11T12:46:24;20.13;;;15.70;;
48777;SDS011;34578;0.000;0.000;2024-01-11T12:51:25;20.50;;;14.57;;
48777;SDS011;34578;0.000;0.000;2024-01-11T12:56:26;17.17;;;13.77;;
48777;SDS011;34578;0.000;0.000;2024-01-11T13:01:27;30.27;;;14.80;;
48777;SDS011;34578;0.000;0.000;2024-01-11T13:06:28;16.85;;;13.77;;
48777;SDS011;34578;0.000;0.000;2024-01-11T13:11:34;17.05;;;13.23;;
48777;SDS011;34578;0.000;0.000;2024-01-11T13:16:34;16.17;;;12.77;;
48777;SDS011;34578;0.000;0.000;2024-01-11T13:21:35;17.13;;;12.27;;
48777;SDS011;34578;0.000;0.000;2024-01-11T13:26:35;16.57;;;11.63;;
48777;SDS011;34578;0.000;0.000;2024-01-11T13:31:39;17.38;;;11.52;;
48777;SDS011;34578;0.000;0.000;2024-01-11T13:36:39;13.48;;;11.25;;
48777;SDS011;34578;0.000;0.000;2024-01-11T13:41:39;16.50;;;13.33;;
48777;SDS011;34578;0.000;0.000;2024-01-11T13:46:41;13.63;;;11.00;;
48777;SDS011;34578;0.000;0.000;2024-01-11T13:51:41;13.23;;;11.18;;
48777;SDS011;34578;0.000;0.000;2024-01-11T13:56:43;13.55;;;11.40;;
48777;SDS011;34578;0.000;0.000;2024-01-11T14:01:44;13.30;;;11.23;;
48777;SDS011;34578;0.000;0.000;2024-01-11T14:06:44;14.10;;;11.57;;
48777;SDS011;34578;0.000;0.000;2024-01-11T14:11:45;12.87;;;10.50;;
48777;SDS011;34578;0.000;0.000;2024-01-11T14:16:48;14.20;;;11.10;;
48777;SDS011;34578;0.000;0.000;2024-01-11T14:21:48;15.47;;;11.17;;
48777;SDS011;34578;0.000;0.000;2024-01-11T14:26:49;13.02;;;11.48;;
48777;SDS011;34578;0.000;0.000;2024-01-11T14:31:49;15.05;;;11.25;;
48777;SDS011;34578;0.000;0.000;2024-01-11T14:36:50;35.27;;;14.47;;
48777;SDS011;34578;0.000;0.000;2024-01-11T14:41:54;32.45;;;15.70;;
48777;SDS011;34578;0.000;0.000;2024-01-11T14:46:54;20.92;;;12.80;;
48777;SDS011;34578;0.000;0.000;2024-01-11T14:51:55;19.23;;;12.50;;
48777;SDS011;34578;0.000;0.000;2024-01-11T14:56:55;18.50;;;13.10;;
48777;SDS011;34578;0.000;0.000;2024-01-11T15:01:56;14.70;;;12.32;;
48777;SDS011;34578;0.000;0.000;2024-01-11T15:06:59;20.08;;;14.15;;
48777;SDS011;34578;0.000;0.000;2024-01-11T15:11:59;18.53;;;13.40;;
48777;SDS011;34578;0.000;0.000;2024-01-11T15:17:00;17.53;;;12.20;;
48777;SDS011;34578;0.000;0.000;2024-01-11T15:22:02;14.77;;;11.25;;
48777;SDS011;34578;0.000;0.000;2024-01-11T15:27:02;15.25;;;11.82;;
48777;SDS011;34578;0.000;0.000;2024-01-11T15:32:03;16.80;;;12.60;;
48777;SDS011;34578;0.000;0.000;2024-01-11T15:37:04;20.20;;;13.63;;
48777;SDS011;34578;0.000;0.000;2024-01-11T15:42:04;17.97;;;13.20;;
48777;SDS011;34578;0.000;0.000;2024-01-11T15:47:05;17.60;;;12.00;;
48777;SDS011;34578;0.000;0.000;2024-01-11T15:52:06;15.82;;;11.70;;
48777;SDS011;34578;0.000;0.000;2024-01-11T15:57:06;15.93;;;11.93;;
48777;SDS011;34578;0.000;0.000;2024-01-11T16:02:09;17.02;;;11.73;;
48777;SDS011;34578;0.000;0.000;2024-01-11T16:07:11;17.67;;;12.63;;
48777;SDS011;34578;0.000;0.000;2024-01-11T16:12:12;16.53;;;12.73;;
48777;SDS011;34578;0.000;0.000;2024-01-11T16:17:12;16.17;;;12.05;;
48777;SDS011;34578;0.000;0.000;2024-01-11T16:22:13;18.58;;;13.43;;
48777;SDS011;34578;0.000;0.000;2024-01-11T16:27:13;17.17;;;13.32;;
48777;SDS011;34578;0.000;0.000;2024-01-11T16:32:14;16.98;;;12.43;;
48777;SDS011;34578;0.000;0.000;2024-01-11T16:37:15;20.02;;;13.63;;
48777;SDS011;34578;0.000;0.000;2024-01-11T16:42:15;16.77;;;12.35;;
48777;SDS011;34578;0.000;0.000;2024-01-11T16:47:18;16.90;;;13.40;;
48777;SDS011;34578;0.000;0.000;2024-01-11T16:52:18;18.77;;;13.97;;
48777;SDS011;34578;0.000;0.000;2024-01-11T16:57:20;18.73;;;14.02;;
48777;SDS011;34578;0.000;0.000;2024-01-11T17:02:21;17.83;;;13.67;;
48777;SDS011;34578;0.000;0.000;2024-01-11T17:12:28;18.37;;;13.97;;
48777;SDS011;34578;0.000;0.000;2024-01-11T17:17:28;17.57;;;14.07;;
48777;SDS011;34578;0.000;0.000;2024-01-11T17:22:28;18.70;;;13.97;;
48777;SDS011;34578;0.000;0.000;2024-01-11T17:27:28;20.80;;;14.63;;
48777;SDS011;34578;0.000;0.000;2024-01-11T17:32:29;17.97;;;13.30;;
48777;SDS011;34578;0.000;0.000;2024-01-11T17:37:29;18.73;;;13.37;;
48777;SDS011;34578;0.000;0.000;2024-01-11T17:42:32;19.02;;;14.75;;
48777;SDS011;34578;0.000;0.000;2024-01-11T17:47:32;16.25;;;13.18;;
48777;SDS011;34578;0.000;0.000;2024-01-11T17:52:33;16.90;;;13.50;;
48777;SDS011;34578;0.000;0.000;2024-01-11T17:57:33;18.83;;;14.23;;
48777;SDS011;34578;0.000;0.000;2024-01-11T18:02:34;18.13;;;12.55;;
48777;SDS011;34578;0.000;0.000;2024-01-11T18:07:37;15.75;;;13.10;;
48777;SDS011;34578;0.000;0.000;2024-01-11T18:12:37;17.17;;;12.40;;
48777;SDS011;34578;0.000;0.000;2024-01-11T18:17:37;14.80;;;12.83;;
48777;SDS011;34578;0.000;0.000;2024-01-11T18:22:40;15.20;;;11.45;;
48777;SDS011;34578;0.000;0.000;2024-01-11T18:27:40;23.67;;;12.60;;
48777;SDS011;34578;0.000;0.000;2024-01-11T18:32:41;18.33;;;12.00;;
48777;SDS011;34578;0.000;0.000;2024-01-11T18:37:41;18.03;;;13.47;;
48777;SDS011;34578;0.000;0.000;2024-01-11T18:42:41;16.33;;;13.20;;
48777;SDS011;34578;0.000;0.000;2024-01-11T18:47:42;23.17;;;12.10;;
48777;SDS011;34578;0.000;0.000;2024-01-11T18:52:42;16.17;;;12.00;;
48777;SDS011;34578;0.000;0.000;2024-01-11T18:57:43;18.83;;;12.60;;
48777;SDS011;34578;0.000;0.000;2024-01-11T19:02:44;16.65;;;11.88;;
48777;SDS011;34578;0.000;0.000;2024-01-11T19:07:47;16.60;;;12.18;;
48777;SDS011;34578;0.000;0.000;2024-01-11T19:12:48;17.75;;;12.32;;
48777;SDS011;34578;0.000;0.000;2024-01-11T19:17:49;17.08;;;12.27;;
48777;SDS011;34578;0.000;0.000;2024-01-11T19:22:49;20.13;;;13.63;;
48777;SDS011;34578;0.000;0.000;2024-01-11T19:27:52;17.23;;;13.57;;
48777;SDS011;34578;0.000;0.000;2024-01-11T19:32:54;23.33;;;14.27;;
48777;SDS011;34578;0.000;0.000;2024-01-11T19:37:55;16.50;;;12.27;;
48777;SDS011;34578;0.000;0.000;2024-01-11T19:42:56;17.02;;;12.80;;
48777;SDS011;34578;0.000;0.000;2024-01-11T19:47:57;17.83;;;13.15;;
48777;SDS011;34578;0.000;0.000;2024-01-11T19:52:57;16.63;;;13.63;;
48777;SDS011;34578;0.000;0.000;2024-01-11T19:57:58;18.90;;;13.03;;
48777;SDS011;34578;0.000;0.000;2024-01-11T20:02:58;16.10;;;12.47;;
48777;SDS011;34578;0.000;0.000;2024-01-11T20:07:58;19.90;;;12.80;;
48777;SDS011;34578;0.000;0.000;2024-01-11T20:12:59;15.03;;;13.30;;
48777;SDS011;34578;0.000;0.000;2024-01-11T20:18:00;17.63;;;12.27;;
48777;SDS011;34578;0.000;0.000;2024-01-11T20:23:01;16.63;;;13.68;;
48777;SDS011;34578;0.000;0.000;2024-01-11T20:28:02;16.50;;;13.38;;
48777;SDS011;34578;0.000;0.000;2024-01-11T20:33:03;15.27;;;12.30;;
48777;SDS011;34578;0.000;0.000;2024-01-11T20:38:04;16.35;;;13.35;;
48777;SDS011;34578;0.000;0.000;2024-01-11T20:43:04;16.57;;;12.80;;
48777;SDS011;34578;0.000;0.000;2024-01-11T20:48:06;18.67;;;12.88;;
48777;SDS011;34578;0.000;0.000;2024-01-11T20:53:06;16.60;;;12.90;;
48777;SDS011;34578;0.000;0.000;2024-01-11T20:58:08;19.13;;;12.88;;
48777;SDS011;34578;0.000;0.000;2024-01-11T21:03:10;15.48;;;12.38;;
48777;SDS011;34578;0.000;0.000;2024-01-11T21:08:10;16.47;;;13.17;;
48777;SDS011;34578;0.000;0.000;2024-01-11T21:13:10;16.63;;;13.47;;
48777;SDS011;34578;0.000;0.000;2024-01-11T21:18:11;17.57;;;13.60;;
48777;SDS011;34578;0.000;0.000;2024-01-11T21:23:12;15.93;;;12.77;;
48777;SDS011;34578;0.000;0.000;2024-01-11T21:28:12;14.68;;;12.48;;
48777;SDS011;34578;0.000;0.000;2024-01-11T21:33:17;13.85;;;11.82;;
48777;SDS011;34578;0.000;0.000;2024-01-11T21:38:17;14.30;;;12.32;;
48777;SDS011;34578;0.000;0.000;2024-01-11T21:43:17;16.43;;;13.10;;
48777;SDS011;34578;0.000;0.000;2024-01-11T21:48:18;19.40;;;14.53;;
48777;SDS011;34578;0.000;0.000;2024-01-11T21:53:18;19.30;;;14.00;;
48777;SDS011;34578;0.000;0.000;2024-01-11T21:58:18;18.67;;;13.53;;
48777;SDS011;34578;0.000;0.000;2024-01-11T22:03:19;16.48;;;12.43;;
48777;SDS011;34578;0.000;0.000;2024-01-11T22:08:20;16.73;;;12.35;;
48777;SDS011;34578;0.000;0.000;2024-01-11T22:13:21;18.52;;;12.45;;
48777;SDS011;34578;0.000;0.000;2024-01-11T22:18:21;16.55;;;12.05;;
48777;SDS011;34578;0.000;0.000;2024-01-11T22:23:24;16.15;;;12.32;;
48777;SDS011;34578;0.000;0.000;2024-01-11T22:28:25;20.55;;;12.68;;
48777;SDS011;34578;0.000;0.000;2024-01-11T22:33:25;16.23;;;13.13;;
48777;SDS011;34578;0.000;0.000;2024-01-11T22:38:26;16.13;;;11.80;;
48777;SDS011;34578;0.000;0.000;2024-01-11T22:43:28;13.30;;;10.45;;
48777;SDS011;34578;0.000;0.000;2024-01-11T22:48:28;15.53;;;12.03;;
48777;SDS011;34578;0.000;0.000;2024-01-11T22:53:29;16.17;;;11.38;;
48777;SDS011;34578;0.000;0.000;2024-01-11T22:58:29;13.93;;;10.77;;
48777;SDS011;34578;0.000;0.000;2024-01-11T23:03:30;13.57;;;11.00;;
48777;SDS011;34578;0.000;0.000;2024-01-11T23:08:31;13.45;;;10.38;;
48777;SDS011;34578;0.000;0.000;2024-01-11T23:13:31;13.43;;;10.73;;
48777;SDS011;34578;0.000;0.000;2024-01-11T23:18:31;14.93;;;10.33;;
48777;SDS011;34578;0.000;0.000;2024-01-11T23:23:32;12.57;;;9.70;;
48777;SDS011;34578;0.000;0.000;2024-01-11T23:28:33;14.68;;;9.80;;
48777;SDS011;34578;0.000;0.000;2024-01-11T23:33:33;13.50;;;10.37;;
48777;SDS011;34578;0.000;0.000;2024-01-11T23:38:33;11.63;;;9.40;;
48777;SDS011;34578;0.000;0.000;2024-01-11T23:43:34;12.93;;;9.87;;
48777;SDS011;34578;0.000;0.000;2024-01-11T23:48:34;12.07;;;9.47;;
48777;SDS011;34578;0.000;0.000;2024-01-11T23:53:36;12.38;;;9.10;;
48777;SDS011;34578;0.000;0.000;2024-01-11T23:58:37;11.30;;;10.05;;
